createdAt,value
2022-08-28T00:00:16.129Z,69.92
2022-08-28T00:02:43.979Z,69.61
2022-08-28T00:05:24.646Z,69.56
2022-08-28T00:07:51.616Z,70.17
2022-08-28T00:10:22.576Z,69.89
2022-08-28T00:12:51.653Z,69.85
2022-08-28T00:15:32.435Z,70.02
2022-08-28T00:18:00.741Z,70.07
2022-08-28T00:20:28.567Z,70.35
2022-08-28T00:22:56.185Z,70.00
2022-08-28T00:25:26.389Z,70.29
2022-08-28T00:27:57.681Z,70.40
2022-08-28T00:30:35.584Z,70.38
2022-08-28T00:33:10.770Z,70.05
2022-08-28T00:35:38.756Z,70.32
2022-08-28T00:38:07.830Z,70.01
2022-08-28T00:40:36.041Z,70.77
2022-08-28T00:43:05.489Z,70.85
2022-08-28T00:45:39.269Z,70.96
2022-08-28T00:48:06.950Z,71.39
2022-08-28T00:50:56.826Z,71.14
2022-08-28T00:53:29.974Z,71.54
2022-08-28T00:56:02.083Z,71.74
2022-08-28T00:58:31.818Z,72.20
2022-08-28T01:01:00.286Z,72.15
2022-08-28T01:03:29.112Z,71.73
2022-08-28T01:05:56.567Z,72.27
2022-08-28T01:08:23.985Z,72.29
2022-08-28T01:10:54.893Z,72.75
2022-08-28T01:13:24.106Z,72.47
2022-08-28T01:15:52.053Z,71.96
2022-08-28T01:18:20.762Z,72.24
2022-08-28T01:21:03.664Z,72.38
2022-08-28T01:23:51.795Z,72.48
2022-08-28T01:26:19.343Z,72.58
2022-08-28T01:28:47.058Z,72.53
2022-08-28T01:31:16.934Z,72.20
2022-08-28T01:33:45.501Z,71.84
2022-08-28T01:36:40.945Z,72.60
2022-08-28T01:39:18.849Z,72.27
2022-08-28T01:41:48.567Z,72.44
2022-08-28T01:44:18.336Z,72.15
2022-08-28T01:46:46.300Z,72.65
2022-08-28T01:49:13.522Z,72.55
2022-08-28T01:51:42.058Z,73.29
2022-08-28T01:54:10.346Z,73.02
2022-08-28T01:56:39.603Z,72.68
2022-08-28T01:59:09.244Z,72.87
2022-08-28T02:01:36.844Z,72.77
2022-08-28T02:04:04.732Z,73.00
2022-08-28T02:06:32.623Z,72.79
2022-08-28T02:09:00.798Z,73.08
2022-08-28T02:11:30.852Z,72.98
2022-08-28T02:13:58.415Z,72.98
2022-08-28T02:16:27.050Z,73.24
2022-08-28T02:18:55.144Z,73.06
2022-08-28T02:21:22.442Z,73.33
2022-08-28T02:23:49.910Z,73.65
2022-08-28T02:26:17.228Z,73.15
2022-08-28T02:28:44.485Z,73.63
2022-08-28T02:31:12.230Z,74.05
2022-08-28T02:33:41.774Z,74.02
2022-08-28T02:36:10.707Z,74.08
2022-08-28T02:38:38.737Z,74.59
2022-08-28T02:41:07.307Z,74.60
2022-08-28T02:43:34.789Z,74.49
2022-08-28T02:46:02.106Z,74.46
2022-08-28T02:48:34.463Z,74.63
2022-08-28T02:51:08.292Z,74.91
2022-08-28T02:53:36.320Z,75.19
2022-08-28T02:56:06.587Z,75.08
2022-08-28T02:58:35.845Z,75.59
2022-08-28T03:01:07.186Z,75.58
2022-08-28T03:03:34.959Z,76.13
2022-08-28T03:06:04.796Z,76.19
2022-08-28T03:08:32.650Z,76.53
2022-08-28T03:11:00.694Z,76.80
2022-08-28T03:13:28.084Z,76.71
2022-08-28T03:15:56.634Z,76.20
2022-08-28T03:18:26.628Z,76.28
2022-08-28T03:20:54.448Z,76.04
2022-08-28T03:23:27.908Z,76.02
2022-08-28T03:26:00.404Z,75.82
2022-08-28T03:28:30.251Z,76.43
2022-08-28T03:30:58.027Z,75.91
2022-08-28T03:33:26.653Z,76.47
2022-08-28T03:35:53.936Z,76.39
2022-08-28T03:38:21.770Z,76.55
2022-08-28T03:40:49.240Z,76.82
2022-08-28T03:43:22.406Z,76.93
2022-08-28T03:45:58.281Z,77.24
2022-08-28T03:48:27.774Z,77.18
2022-08-28T03:50:55.338Z,77.22
2022-08-28T03:53:24.156Z,76.88
2022-08-28T03:55:51.740Z,76.78
2022-08-28T03:58:19.613Z,77.06
2022-08-28T04:00:47.125Z,77.20
2022-08-28T04:03:14.451Z,77.14
2022-08-28T04:05:42.991Z,77.46
2022-08-28T04:08:15.403Z,77.49
2022-08-28T04:10:44.372Z,77.17
2022-08-28T04:13:13.658Z,77.82
2022-08-28T04:15:41.631Z,77.42
2022-08-28T04:18:09.882Z,77.66
2022-08-28T04:20:38.949Z,77.82
2022-08-28T04:23:08.156Z,77.72
2022-08-28T04:25:35.129Z,77.67
2022-08-28T04:28:02.131Z,78.10
2022-08-28T04:30:29.245Z,78.38
2022-08-28T04:32:56.293Z,78.18
2022-08-28T04:35:23.235Z,77.83
2022-08-28T04:37:50.342Z,77.65
2022-08-28T04:40:17.466Z,77.54
2022-08-28T04:42:45.306Z,77.58
2022-08-28T04:45:12.483Z,78.34
2022-08-28T04:47:39.891Z,77.66
2022-08-28T04:50:08.050Z,77.73
2022-08-28T04:52:35.370Z,77.64
2022-08-28T04:55:02.607Z,78.20
2022-08-28T04:57:32.218Z,78.22
2022-08-28T05:00:03.336Z,78.57
2022-08-28T05:02:30.366Z,79.74
2022-08-28T05:04:57.478Z,79.13
2022-08-28T05:07:27.255Z,78.59
2022-08-28T05:09:55.006Z,78.65
2022-08-28T05:12:22.440Z,78.60
2022-08-28T05:14:49.669Z,78.71
2022-08-28T05:17:16.734Z,78.64
2022-08-28T05:19:44.940Z,78.33
2022-08-28T05:22:13.222Z,78.10
2022-08-28T05:24:40.843Z,77.70
2022-08-28T05:27:08.890Z,78.02
2022-08-28T05:29:35.924Z,78.25
2022-08-28T05:32:03.713Z,78.93
2022-08-28T05:34:31.560Z,79.46
2022-08-28T05:36:58.478Z,79.04
2022-08-28T05:39:26.715Z,79.06
2022-08-28T05:41:53.703Z,79.38
2022-08-28T05:44:21.136Z,79.57
2022-08-28T05:46:48.630Z,79.31
2022-08-28T05:49:24.507Z,79.10
2022-08-28T05:51:51.429Z,79.71
2022-08-28T05:54:18.446Z,80.24
2022-08-28T05:56:46.502Z,79.00
2022-08-28T05:59:16.078Z,79.06
2022-08-28T06:01:46.989Z,78.79
2022-08-28T06:04:18.069Z,78.86
2022-08-28T06:06:45.660Z,78.58
2022-08-28T06:09:29.442Z,78.93
2022-08-28T06:12:00.120Z,79.10
2022-08-28T06:14:27.941Z,79.35
2022-08-28T06:16:56.838Z,79.07
2022-08-28T06:19:30.127Z,79.24
2022-08-28T06:21:59.247Z,78.98
2022-08-28T06:24:27.720Z,79.25
2022-08-28T06:26:56.556Z,79.37
2022-08-28T06:29:44.997Z,78.81
2022-08-28T06:32:11.955Z,78.51
2022-08-28T06:34:39.008Z,78.43
2022-08-28T06:37:05.949Z,77.82
2022-08-28T06:39:32.753Z,78.16
2022-08-28T06:42:00.184Z,78.17
2022-08-28T06:44:28.537Z,78.17
2022-08-28T06:46:55.787Z,78.13
2022-08-28T06:49:28.536Z,77.91
2022-08-28T06:51:56.393Z,77.72
2022-08-28T06:54:23.657Z,77.66
2022-08-28T06:56:52.406Z,77.12
2022-08-28T06:59:28.073Z,77.60
2022-08-28T07:01:58.533Z,76.95
2022-08-28T07:04:25.448Z,76.96
2022-08-28T07:06:54.679Z,76.31
2022-08-28T07:09:27.886Z,76.22
2022-08-28T07:11:54.699Z,76.26
2022-08-28T07:14:21.791Z,76.46
2022-08-28T07:16:48.538Z,76.64
2022-08-28T07:19:15.644Z,76.03
2022-08-28T07:21:45.441Z,76.43
2022-08-28T07:24:14.930Z,76.64
2022-08-28T07:26:43.759Z,76.54
2022-08-28T07:29:11.711Z,76.66
2022-08-28T07:31:46.180Z,76.15
2022-08-28T07:34:14.253Z,75.93
2022-08-28T07:36:42.165Z,75.94
2022-08-28T07:39:10.766Z,75.77
2022-08-28T07:41:40.294Z,76.14
2022-08-28T07:44:27.211Z,75.46
2022-08-28T07:46:59.425Z,75.94
2022-08-28T07:49:28.245Z,75.63
2022-08-28T07:51:55.128Z,76.31
2022-08-28T07:54:23.115Z,75.78
2022-08-28T07:56:50.683Z,75.82
2022-08-28T07:59:26.349Z,75.26
2022-08-28T08:01:53.478Z,74.92
2022-08-28T08:04:21.849Z,74.89
2022-08-28T08:06:51.368Z,74.69
2022-08-28T08:09:28.661Z,74.37
2022-08-28T08:11:56.802Z,74.08
2022-08-28T08:14:25.128Z,74.50
2022-08-28T08:16:52.753Z,74.56
2022-08-28T08:19:27.094Z,73.18
2022-08-28T08:21:55.243Z,73.07
2022-08-28T08:24:26.626Z,72.85
2022-08-28T08:26:59.865Z,73.37
2022-08-28T08:29:35.662Z,72.88
2022-08-28T08:32:08.099Z,72.71
2022-08-28T08:34:38.803Z,72.11
2022-08-28T08:37:06.650Z,72.50
2022-08-28T08:39:35.647Z,72.63
2022-08-28T08:42:05.302Z,72.66
2022-08-28T08:44:43.720Z,70.94
2022-08-28T08:47:37.953Z,70.36
2022-08-28T08:50:11.474Z,70.92
2022-08-28T08:53:06.832Z,70.54
2022-08-28T08:55:36.038Z,69.37
2022-08-28T08:58:02.863Z,68.95
2022-08-28T09:00:34.396Z,70.73
2022-08-28T09:03:09.042Z,69.62
2022-08-28T09:05:48.412Z,68.82
2022-08-28T09:08:42.685Z,68.80
2022-08-28T09:11:46.011Z,68.23
2022-08-28T09:14:34.894Z,68.64
2022-08-28T09:17:02.693Z,68.81
2022-08-28T09:19:29.836Z,69.68
2022-08-28T09:21:57.068Z,68.35
2022-08-28T09:24:32.928Z,67.17
2022-08-28T09:27:08.185Z,66.73
2022-08-28T09:29:47.277Z,67.49
2022-08-28T09:32:25.817Z,66.73
2022-08-28T09:35:25.299Z,66.70
2022-08-28T09:37:52.647Z,66.23
2022-08-28T09:40:47.588Z,66.36
2022-08-28T09:43:29.143Z,66.25
2022-08-28T09:46:22.313Z,65.78
2022-08-28T09:48:52.612Z,65.26
2022-08-28T09:51:22.673Z,65.29
2022-08-28T09:53:52.455Z,66.04
2022-08-28T09:56:27.742Z,65.78
2022-08-28T09:58:58.001Z,64.47
2022-08-28T10:01:46.640Z,64.96
2022-08-28T10:04:28.757Z,63.49
2022-08-28T10:07:02.688Z,63.48
2022-08-28T10:09:33.885Z,62.95
2022-08-28T10:12:15.319Z,62.35
2022-08-28T10:15:00.315Z,61.06
2022-08-28T10:17:52.121Z,59.37
2022-08-28T10:20:24.890Z,60.14
2022-08-28T10:23:00.915Z,60.39
2022-08-28T10:25:46.631Z,60.62
2022-08-28T10:28:39.949Z,61.12
2022-08-28T10:31:31.808Z,61.50
2022-08-28T10:34:17.222Z,60.95
2022-08-28T10:36:50.658Z,61.09
2022-08-28T10:39:47.810Z,60.87
2022-08-28T10:42:22.937Z,61.01
2022-08-28T10:45:07.206Z,61.70
2022-08-28T10:47:38.093Z,60.09
2022-08-28T10:50:17.800Z,59.41
2022-08-28T10:52:51.581Z,59.23
2022-08-28T10:55:36.660Z,58.82
2022-08-28T10:58:24.193Z,58.02
2022-08-28T11:01:01.388Z,58.57
2022-08-28T11:03:34.850Z,57.82
2022-08-28T11:06:11.839Z,57.56
2022-08-28T11:08:40.298Z,57.74
2022-08-28T11:11:13.983Z,57.89
2022-08-28T11:13:52.689Z,58.23
2022-08-28T11:16:35.837Z,58.39
2022-08-28T11:19:11.618Z,58.76
2022-08-28T11:21:53.796Z,59.25
2022-08-28T11:24:38.887Z,57.38
2022-08-28T11:27:35.165Z,57.36
2022-08-28T11:30:15.391Z,55.41
2022-08-28T11:33:28.531Z,55.25
2022-08-28T11:35:55.496Z,56.10
2022-08-28T11:38:45.785Z,56.29
2022-08-28T11:41:15.496Z,55.09
2022-08-28T11:43:51.049Z,55.65
2022-08-28T11:46:34.095Z,55.96
2022-08-28T11:49:04.082Z,55.74
2022-08-28T11:51:46.130Z,55.37
2022-08-28T11:54:24.265Z,55.90
2022-08-28T11:57:04.218Z,56.35
2022-08-28T11:59:40.165Z,56.07
2022-08-28T12:02:38.066Z,56.24
2022-08-28T12:05:31.649Z,56.41
2022-08-28T12:08:01.071Z,56.19
2022-08-28T12:10:27.967Z,56.33
2022-08-28T12:13:03.373Z,56.16
2022-08-28T12:15:30.109Z,55.79
2022-08-28T12:18:02.513Z,55.06
2022-08-28T12:20:47.921Z,55.62
2022-08-28T12:23:23.836Z,54.00
2022-08-28T12:25:59.211Z,53.47
2022-08-28T12:28:32.003Z,53.72
2022-08-28T12:31:01.794Z,53.43
2022-08-28T12:33:49.660Z,53.58
2022-08-28T12:36:19.350Z,53.09
2022-08-28T12:38:52.286Z,52.63
2022-08-28T12:41:20.956Z,52.69
2022-08-28T12:43:51.171Z,53.10
2022-08-28T12:46:20.882Z,52.07
2022-08-28T12:48:58.982Z,53.16
2022-08-28T12:51:29.157Z,53.06
2022-08-28T12:53:58.938Z,53.04
2022-08-28T12:56:30.264Z,50.86
2022-08-28T12:59:22.082Z,51.54
2022-08-28T13:01:54.801Z,52.19
2022-08-28T13:04:36.005Z,51.79
2022-08-28T13:07:30.874Z,51.19
2022-08-28T13:10:01.807Z,50.93
2022-08-28T13:12:54.884Z,51.35
2022-08-28T13:15:51.910Z,50.19
2022-08-28T13:18:46.694Z,49.92
2022-08-28T13:21:13.543Z,49.82
2022-08-28T13:23:40.663Z,50.36
2022-08-28T13:26:08.413Z,50.86
2022-08-28T13:28:43.531Z,51.37
2022-08-28T13:31:33.215Z,51.73
2022-08-28T13:34:03.291Z,51.11
2022-08-28T13:36:41.531Z,50.57
2022-08-28T13:39:09.881Z,50.96
2022-08-28T13:41:37.824Z,51.46
2022-08-28T13:44:05.626Z,51.47
2022-08-28T13:46:32.947Z,52.01
2022-08-28T13:49:00.308Z,52.44
2022-08-28T13:51:29.219Z,52.31
2022-08-28T13:53:56.935Z,53.15
2022-08-28T13:56:27.694Z,53.60
2022-08-28T13:58:57.864Z,53.60
2022-08-28T14:01:48.864Z,53.06
2022-08-28T14:04:15.995Z,53.52
2022-08-28T14:06:44.298Z,52.75
2022-08-28T14:09:17.601Z,52.38
2022-08-28T14:11:45.930Z,52.69
2022-08-28T14:14:12.916Z,52.27
2022-08-28T14:16:40.650Z,52.42
2022-08-28T14:19:08.172Z,52.55
2022-08-28T14:21:39.427Z,52.39
2022-08-28T14:24:06.999Z,52.67
2022-08-28T14:26:34.328Z,51.48
2022-08-28T14:29:02.732Z,50.79
2022-08-28T14:31:30.635Z,51.47
2022-08-28T14:33:58.466Z,51.15
2022-08-28T14:36:30.266Z,51.20
2022-08-28T14:39:02.806Z,50.90
2022-08-28T14:41:32.561Z,51.45
2022-08-28T14:43:59.610Z,51.80
2022-08-28T14:46:36.022Z,51.88
2022-08-28T14:49:09.241Z,52.02
2022-08-28T14:51:39.223Z,52.82
2022-08-28T14:54:07.788Z,52.47
2022-08-28T14:56:36.218Z,52.65
2022-08-28T14:59:06.396Z,52.55
2022-08-28T15:01:39.680Z,52.04
2022-08-28T15:04:11.277Z,52.73
2022-08-28T15:06:38.814Z,52.04
2022-08-28T15:09:05.871Z,52.11
2022-08-28T15:11:32.787Z,52.28
2022-08-28T15:13:59.701Z,51.97
2022-08-28T15:16:32.718Z,52.16
2022-08-28T15:19:00.037Z,52.26
2022-08-28T15:21:33.123Z,53.23
2022-08-28T15:24:02.624Z,52.92
2022-08-28T15:26:31.088Z,52.67
2022-08-28T15:29:02.548Z,53.51
2022-08-28T15:31:35.546Z,53.05
2022-08-28T15:34:13.510Z,52.87
2022-08-28T15:36:43.739Z,53.25
2022-08-28T15:39:33.612Z,53.80
2022-08-28T15:42:00.993Z,53.71
2022-08-28T15:44:28.455Z,53.62
2022-08-28T15:47:05.082Z,53.38
2022-08-28T15:49:43.346Z,53.28
2022-08-28T15:52:12.916Z,53.52
2022-08-28T15:54:39.772Z,53.49
2022-08-28T15:57:06.660Z,53.70
2022-08-28T15:59:38.021Z,54.23
2022-08-28T16:02:16.315Z,54.60
2022-08-28T16:04:43.262Z,55.03
2022-08-28T16:07:10.043Z,54.74
2022-08-28T16:09:37.060Z,55.25
2022-08-28T16:12:04.310Z,54.15
2022-08-28T16:14:34.494Z,53.95
2022-08-28T16:17:05.780Z,53.30
2022-08-28T16:19:40.805Z,53.88
2022-08-28T16:22:09.269Z,54.28
2022-08-28T16:24:36.386Z,54.41
2022-08-28T16:27:03.375Z,53.25
2022-08-28T16:29:30.692Z,53.11
2022-08-28T16:31:57.699Z,52.70
2022-08-28T16:34:30.763Z,53.18
2022-08-28T16:36:58.687Z,53.24
2022-08-28T16:39:29.522Z,54.22
2022-08-28T16:41:56.417Z,53.36
2022-08-28T16:44:28.190Z,53.38
2022-08-28T16:46:55.719Z,53.54
2022-08-28T16:49:29.745Z,53.95
2022-08-28T16:51:56.645Z,53.68
2022-08-28T16:54:23.866Z,54.95
2022-08-28T16:56:51.006Z,54.60
2022-08-28T16:59:29.891Z,54.92
2022-08-28T17:01:56.717Z,54.80
2022-08-28T17:04:24.368Z,55.03
2022-08-28T17:06:51.279Z,56.15
2022-08-28T17:09:27.581Z,56.33
2022-08-28T17:11:54.515Z,56.19
2022-08-28T17:14:22.256Z,56.78
2022-08-28T17:16:49.715Z,56.53
2022-08-28T17:19:21.951Z,56.50
2022-08-28T17:22:07.759Z,57.56
2022-08-28T17:24:34.618Z,57.23
2022-08-28T17:27:05.475Z,56.89
2022-08-28T17:29:34.823Z,56.73
2022-08-28T17:32:02.087Z,56.82
2022-08-28T17:34:30.595Z,56.98
2022-08-28T17:36:57.625Z,57.54
2022-08-28T17:39:28.679Z,57.48
2022-08-28T17:41:55.628Z,57.23
2022-08-28T17:44:23.573Z,57.63
2022-08-28T17:46:51.958Z,57.83
2022-08-28T17:49:27.900Z,58.04
2022-08-28T17:51:54.761Z,58.22
2022-08-28T17:54:24.482Z,58.38
2022-08-28T17:56:53.262Z,57.53
2022-08-28T17:59:28.342Z,57.51
2022-08-28T18:01:55.639Z,57.80
2022-08-28T18:04:24.527Z,58.59
2022-08-28T18:06:54.611Z,59.11
2022-08-28T18:09:28.255Z,58.15
2022-08-28T18:11:55.095Z,57.99
2022-08-28T18:14:22.043Z,57.98
2022-08-28T18:16:49.186Z,58.34
2022-08-28T18:19:16.949Z,58.19
2022-08-28T18:21:44.170Z,58.75
2022-08-28T18:24:13.210Z,58.16
2022-08-28T18:26:41.703Z,58.35
2022-08-28T18:29:08.577Z,58.24
2022-08-28T18:31:35.547Z,59.02
2022-08-28T18:34:02.586Z,59.95
2022-08-28T18:36:29.822Z,59.58
2022-08-28T18:38:57.155Z,58.65
2022-08-28T18:41:41.636Z,58.29
2022-08-28T18:44:13.291Z,58.04
2022-08-28T18:46:40.916Z,58.03
2022-08-28T18:49:08.254Z,58.51
2022-08-28T18:51:35.451Z,57.96
2022-08-28T18:54:04.925Z,58.30
2022-08-28T18:56:33.711Z,58.73
2022-08-28T18:59:03.684Z,58.91
2022-08-28T19:01:30.926Z,59.03
2022-08-28T19:03:58.030Z,59.34
2022-08-28T19:06:25.265Z,59.72
2022-08-28T19:08:52.564Z,59.87
2022-08-28T19:11:19.881Z,59.97
2022-08-28T19:13:47.082Z,60.46
2022-08-28T19:16:20.930Z,60.61
2022-08-28T19:18:51.406Z,60.87
2022-08-28T19:21:20.683Z,61.41
2022-08-28T19:23:56.092Z,61.15
2022-08-28T19:26:24.951Z,61.27
2022-08-28T19:28:58.682Z,60.35
2022-08-28T19:31:26.502Z,61.13
2022-08-28T19:33:53.990Z,60.95
2022-08-28T19:36:21.846Z,61.37
2022-08-28T19:38:49.241Z,61.39
2022-08-28T19:41:16.691Z,61.63
2022-08-28T19:43:44.408Z,62.04
2022-08-28T19:46:19.851Z,62.09
2022-08-28T19:48:52.140Z,62.39
2022-08-28T19:51:23.169Z,62.40
2022-08-28T19:53:58.366Z,63.15
2022-08-28T19:56:33.760Z,63.09
2022-08-28T19:59:04.404Z,62.99
2022-08-28T20:01:35.609Z,63.16
2022-08-28T20:04:03.112Z,62.86
2022-08-28T20:06:35.001Z,63.42
2022-08-28T20:09:03.080Z,63.53
2022-08-28T20:11:30.999Z,63.85
2022-08-28T20:14:04.552Z,63.83
2022-08-28T20:16:35.750Z,64.12
2022-08-28T20:19:04.310Z,64.21
2022-08-28T20:21:37.623Z,64.38
2022-08-28T20:24:11.052Z,64.42
2022-08-28T20:26:38.165Z,65.12
2022-08-28T20:29:07.670Z,64.38
2022-08-28T20:31:35.596Z,64.49
2022-08-28T20:34:02.994Z,64.54
2022-08-28T20:36:30.194Z,65.07
2022-08-28T20:38:57.489Z,64.76
2022-08-28T20:41:24.898Z,64.73
2022-08-28T20:43:52.096Z,64.89
2022-08-28T20:46:20.220Z,65.16
2022-08-28T20:48:47.560Z,65.39
2022-08-28T20:51:14.786Z,65.33
2022-08-28T20:53:42.131Z,65.01
2022-08-28T20:56:10.731Z,64.97
2022-08-28T20:58:38.430Z,65.19
2022-08-28T21:01:06.041Z,65.31
2022-08-28T21:03:33.342Z,65.44
2022-08-28T21:06:00.427Z,65.55
2022-08-28T21:08:27.536Z,65.34
2022-08-28T21:10:54.693Z,65.54
2022-08-28T21:13:22.056Z,65.43
2022-08-28T21:15:49.194Z,65.72
2022-08-28T21:18:16.605Z,66.08
2022-08-28T21:20:44.352Z,65.81
2022-08-28T21:23:13.649Z,66.15
2022-08-28T21:25:41.844Z,65.78
2022-08-28T21:28:09.296Z,66.04
2022-08-28T21:30:36.445Z,66.21
2022-08-28T21:33:03.901Z,67.24
2022-08-28T21:35:31.161Z,66.99
2022-08-28T21:37:58.193Z,65.79
2022-08-28T21:40:25.470Z,66.33
2022-08-28T21:42:52.511Z,66.39
2022-08-28T21:45:20.346Z,66.43
2022-08-28T21:47:47.881Z,66.64
2022-08-28T21:50:16.907Z,67.13
2022-08-28T21:52:44.101Z,67.14
2022-08-28T21:55:14.203Z,66.78
2022-08-28T21:57:41.494Z,66.71
2022-08-28T22:00:13.395Z,66.47
2022-08-28T22:02:40.666Z,67.03
2022-08-28T22:05:08.149Z,66.92
2022-08-28T22:07:36.425Z,67.17
2022-08-28T22:10:04.978Z,66.99
2022-08-28T22:12:32.833Z,67.46
2022-08-28T22:15:01.084Z,67.50
2022-08-28T22:17:28.238Z,67.41
2022-08-28T22:19:55.512Z,67.70
2022-08-28T22:22:41.001Z,67.80
2022-08-28T22:25:08.589Z,68.01
2022-08-28T22:27:35.552Z,68.07
2022-08-28T22:30:03.265Z,67.97
2022-08-28T22:32:30.579Z,68.27
2022-08-28T22:34:57.796Z,68.29
2022-08-28T22:37:26.116Z,68.10
2022-08-28T22:39:53.550Z,68.92
2022-08-28T22:42:20.799Z,69.10
2022-08-28T22:44:47.936Z,68.64
2022-08-28T22:47:15.322Z,69.02
2022-08-28T22:49:46.089Z,69.51
2022-08-28T22:52:13.752Z,69.47
2022-08-28T22:54:40.800Z,69.62
2022-08-28T22:57:08.134Z,69.49
2022-08-28T22:59:36.614Z,69.58
2022-08-28T23:02:04.776Z,69.86
2022-08-28T23:04:32.227Z,69.73
2022-08-28T23:06:59.360Z,69.56
2022-08-28T23:09:32.161Z,69.62
2022-08-28T23:12:08.082Z,69.64
2022-08-28T23:14:35.260Z,69.97
2022-08-28T23:17:02.389Z,70.28
2022-08-28T23:19:36.906Z,70.34
2022-08-28T23:22:04.092Z,70.06
2022-08-28T23:24:32.097Z,70.20
2022-08-28T23:27:13.933Z,69.93
2022-08-28T23:29:46.362Z,69.91
2022-08-28T23:32:20.337Z,70.28
2022-08-28T23:34:47.445Z,70.38
2022-08-28T23:37:14.588Z,70.44
2022-08-28T23:39:42.184Z,70.75
2022-08-28T23:42:09.603Z,70.64
2022-08-28T23:44:36.803Z,70.87
2022-08-28T23:47:04.525Z,70.81
2022-08-28T23:49:42.650Z,70.77
2022-08-28T23:52:10.198Z,70.92
2022-08-28T23:54:37.436Z,70.40
2022-08-28T23:57:05.329Z,71.06
2022-08-28T23:59:40.097Z,71.14
